Time;durP1;ratioP1;P1;durP2;ratioP2;P2;SDS_P1;SDS_P2;PMS_P1;PMS_P2;Temp;Humidity;BMP_temperature;BMP_pressure;BME280_temperature;BME280_humidity;BME280_pressure;Samples;Min_cycle;Max_cycle;Signal;HPM_P1;HPM_P2
2023/12/24 00:01:44;;;;;;;7.75;2.55;;;8.60;99.90;;;;;;5013092;28;20033;-63
2023/12/24 00:04:10;;;;;;;11.15;3.20;;;8.60;99.90;;;;;;5003791;28;20092;-63
2023/12/24 00:06:36;;;;;;;13.10;3.45;;;8.60;99.90;;;;;;5024314;28;20102;-63
2023/12/24 00:09:02;;;;;;;12.45;3.42;;;8.60;99.90;;;;;;5021278;28;20123;-63
2023/12/24 00:11:27;;;;;;;8.82;2.80;;;8.60;99.90;;;;;;5006746;28;20021;-63
2023/12/24 00:14:00;;;;;;;9.07;2.75;;;8.60;99.90;;;;;;5005054;28;20116;-62
2023/12/24 00:16:26;;;;;;;11.25;3.25;;;8.50;99.90;;;;;;5023540;28;20068;-63
2023/12/24 00:18:52;;;;;;;4.95;1.65;;;8.50;99.90;;;;;;5020295;28;20045;-63
2023/12/24 00:21:17;;;;;;;10.88;3.17;;;8.50;99.90;;;;;;5022940;28;20032;-62
2023/12/24 00:23:45;;;;;;;11.25;3.25;;;8.50;99.90;;;;;;5021908;28;20033;-63
2023/12/24 00:26:13;;;;;;;13.98;3.60;;;8.50;99.90;;;;;;5020650;28;20022;-63
2023/12/24 00:28:41;;;;;;;17.00;2.85;;;8.40;99.90;;;;;;5023229;28;20025;-64
2023/12/24 00:31:07;;;;;;;9.30;3.38;;;8.50;99.90;;;;;;5018761;28;20364;-63
2023/12/24 00:33:32;;;;;;;9.93;3.17;;;8.50;99.90;;;;;;5021008;28;20045;-63
2023/12/24 00:35:58;;;;;;;12.80;3.40;;;8.40;99.90;;;;;;5019755;28;20156;-63
2023/12/24 00:38:24;;;;;;;9.93;2.78;;;8.40;99.90;;;;;;5020842;28;20053;-63
2023/12/24 00:40:49;;;;;;;6.95;2.25;;;8.40;99.90;;;;;;5021629;28;20034;-63
2023/12/24 00:43:15;;;;;;;9.98;3.13;;;8.30;99.90;;;;;;5003527;28;20409;-62
2023/12/24 00:45:40;;;;;;;10.35;3.03;;;8.40;99.90;;;;;;5022165;28;20037;-62
2023/12/24 00:48:07;;;;;;;12.85;3.33;;;8.40;99.90;;;;;;5013077;28;20469;-63
2023/12/24 00:50:33;;;;;;;6.90;2.17;;;8.40;99.90;;;;;;5021975;28;20079;-63
2023/12/24 00:52:58;;;;;;;7.53;2.53;;;8.40;99.90;;;;;;5020277;28;20104;-64
2023/12/24 00:55:24;;;;;;;9.25;2.83;;;8.40;99.90;;;;;;4998798;28;20030;-63
2023/12/24 00:57:50;;;;;;;9.80;3.22;;;8.50;99.90;;;;;;5020565;28;20033;-63
2023/12/24 01:00:16;;;;;;;9.15;2.67;;;8.60;99.90;;;;;;5016811;28;20018;-63
2023/12/24 01:02:43;;;;;;;11.43;3.35;;;8.60;99.90;;;;;;5020588;28;20032;-63
2023/12/24 01:05:09;;;;;;;8.13;2.50;;;8.50;99.90;;;;;;5018708;28;20481;-63
2023/12/24 01:07:35;;;;;;;8.30;2.50;;;8.60;99.90;;;;;;5020451;28;20032;-63
2023/12/24 01:10:00;;;;;;;12.70;2.80;;;8.60;99.90;;;;;;5022659;28;20016;-63
2023/12/24 01:12:26;;;;;;;10.68;2.88;;;8.70;99.90;;;;;;5020175;28;20081;-62
2023/12/24 01:14:52;;;;;;;7.97;2.60;;;8.70;99.90;;;;;;5020873;28;20111;-62
2023/12/24 01:17:17;;;;;;;9.77;2.88;;;8.80;99.90;;;;;;5019785;28;20079;-62
2023/12/24 01:19:43;;;;;;;8.35;2.05;;;8.80;99.90;;;;;;5022582;28;20061;-62
2023/12/24 01:22:12;;;;;;;9.93;2.33;;;8.70;99.90;;;;;;5003271;28;20025;-62
2023/12/24 01:24:37;;;;;;;11.40;3.20;;;8.70;99.90;;;;;;5020263;28;20022;-62
2023/12/24 01:27:03;;;;;;;9.55;3.00;;;8.70;99.90;;;;;;5015036;28;20424;-61
2023/12/24 01:29:29;;;;;;;8.60;2.90;;;8.70;99.90;;;;;;5017752;28;20103;-62
2023/12/24 01:31:57;;;;;;;8.50;2.22;;;8.70;99.90;;;;;;5020772;28;20029;-62
2023/12/24 01:34:23;;;;;;;10.55;3.08;;;8.70;99.90;;;;;;5019153;28;20025;-61
2023/12/24 01:36:48;;;;;;;6.53;2.40;;;8.70;99.90;;;;;;5001482;28;20084;-62
2023/12/24 01:39:15;;;;;;;9.73;3.10;;;8.70;99.90;;;;;;5018356;28;20025;-62
2023/12/24 01:41:43;;;;;;;12.32;3.22;;;8.70;99.90;;;;;;5019218;28;20040;-62
2023/12/24 01:44:09;;;;;;;5.93;2.55;;;8.80;99.90;;;;;;5019168;28;20029;-62
2023/12/24 01:46:36;;;;;;;9.65;2.20;;;8.70;99.90;;;;;;4999352;28;20026;-61
2023/12/24 01:49:02;;;;;;;9.80;2.50;;;8.70;99.90;;;;;;5016274;28;20029;-61
2023/12/24 01:51:30;;;;;;;9.25;2.45;;;8.70;99.90;;;;;;5017202;28;20030;-62
2023/12/24 01:53:56;;;;;;;9.07;2.42;;;8.60;99.90;;;;;;5015651;28;20029;-61
2023/12/24 01:56:26;;;;;;;9.57;2.28;;;8.60;99.90;;;;;;5000055;28;20025;-61
2023/12/24 01:58:52;;;;;;;6.80;2.40;;;8.50;99.90;;;;;;5015635;28;20028;-61
2023/12/24 02:01:18;;;;;;;6.75;2.30;;;8.50;99.90;;;;;;5010716;28;20026;-61
2023/12/24 02:03:46;;;;;;;8.00;2.70;;;8.50;99.90;;;;;;5016623;28;20037;-61
2023/12/24 02:06:14;;;;;;;11.43;2.40;;;8.50;99.90;;;;;;5000631;28;20452;-67
2023/12/24 02:08:40;;;;;;;6.88;2.63;;;8.60;99.90;;;;;;4999491;28;20397;-62
2023/12/24 02:11:06;;;;;;;5.05;1.83;;;8.50;99.90;;;;;;4997170;28;20397;-62
2023/12/24 02:13:33;;;;;;;9.30;3.00;;;8.50;99.90;;;;;;5014434;28;20473;-62
2023/12/24 02:16:02;;;;;;;6.63;2.47;;;8.40;99.90;;;;;;4998726;28;20030;-62
2023/12/24 02:18:28;;;;;;;8.77;2.38;;;8.50;99.90;;;;;;5013998;28;20049;-61
2023/12/24 02:21:07;;;;;;;9.15;2.88;;;8.40;99.90;;;;;;4998701;28;20040;-62
2023/12/24 02:23:32;;;;;;;8.88;2.88;;;8.30;99.90;;;;;;5015165;28;20597;-62
2023/12/24 02:26:05;;;;;;;10.40;3.33;;;8.30;99.90;;;;;;5016151;28;20022;-62
2023/12/24 02:28:38;;;;;;;7.55;2.55;;;8.40;99.90;;;;;;5020723;28;20068;-62
2023/12/24 02:31:10;;;;;;;7.78;2.90;;;8.40;99.90;;;;;;5017652;28;20076;-62
2023/12/24 02:33:42;;;;;;;12.82;2.67;;;8.50;99.90;;;;;;5000593;28;20029;-62
2023/12/24 02:36:12;;;;;;;6.50;1.95;;;8.50;99.90;;;;;;4999969;28;20034;-62
2023/12/24 02:38:37;;;;;;;8.23;1.98;;;8.50;99.90;;;;;;5018598;28;20022;-62
2023/12/24 02:41:04;;;;;;;7.38;2.25;;;8.50;99.90;;;;;;4997599;28;20092;-62
2023/12/24 02:43:30;;;;;;;12.32;2.45;;;8.60;99.90;;;;;;5021824;28;20032;-62
2023/12/24 02:45:56;;;;;;;7.20;2.20;;;8.50;99.90;;;;;;5015873;28;20018;-62
2023/12/24 02:48:22;;;;;;;6.50;1.90;;;8.60;99.90;;;;;;5018332;28;20065;-62
2023/12/24 02:50:48;;;;;;;8.70;1.83;;;8.60;99.90;;;;;;4999077;28;20338;-62
2023/12/24 02:53:14;;;;;;;5.55;1.50;;;8.70;99.90;;;;;;5016724;28;20014;-62
2023/12/24 02:55:42;;;;;;;7.40;1.60;;;8.70;99.90;;;;;;5018748;28;20032;-62
2023/12/24 02:58:11;;;;;;;6.72;1.83;;;8.70;99.90;;;;;;5014144;28;20400;-62
2023/12/24 03:00:36;;;;;;;5.88;1.55;;;8.70;99.90;;;;;;5010211;28;20026;-62
2023/12/24 03:03:02;;;;;;;6.07;1.80;;;8.70;99.90;;;;;;5015173;28;20367;-62
2023/12/24 03:05:28;;;;;;;7.25;2.47;;;8.80;99.90;;;;;;5000375;28;20462;-62
2023/12/24 03:07:53;;;;;;;7.78;2.05;;;8.70;99.90;;;;;;5015785;28;20033;-62
2023/12/24 03:10:19;;;;;;;8.10;1.90;;;8.70;99.90;;;;;;5018505;28;20176;-62
2023/12/24 03:12:44;;;;;;;7.80;1.90;;;8.70;99.90;;;;;;5017225;28;20032;-62
2023/12/24 03:15:11;;;;;;;6.55;1.65;;;8.60;99.90;;;;;;5017737;28;20022;-62
2023/12/24 03:17:37;;;;;;;8.25;2.10;;;8.60;99.90;;;;;;5015598;28;20029;-62
2023/12/24 03:20:03;;;;;;;8.18;2.17;;;8.50;99.90;;;;;;5020068;28;20050;-62
2023/12/24 03:22:28;;;;;;;7.93;2.10;;;8.40;99.90;;;;;;4996572;28;20425;-62
2023/12/24 03:24:56;;;;;;;9.00;2.30;;;8.40;99.90;;;;;;5018789;28;20026;-62
2023/12/24 03:27:23;;;;;;;8.48;2.70;;;8.30;99.90;;;;;;5020002;28;20017;-62
2023/12/24 03:29:49;;;;;;;5.68;1.80;;;8.30;99.90;;;;;;4988666;28;20069;-62
2023/12/24 03:32:14;;;;;;;7.82;2.10;;;8.20;99.90;;;;;;5020919;28;20029;-62
2023/12/24 03:34:40;;;;;;;4.55;1.50;;;8.20;99.90;;;;;;5021295;28;20101;-62
2023/12/24 03:37:09;;;;;;;4.30;1.40;;;8.30;99.90;;;;;;5017722;28;20022;-62
2023/12/24 03:39:34;;;;;;;3.40;1.23;;;8.20;99.90;;;;;;5019373;28;20032;-62
2023/12/24 03:42:00;;;;;;;5.50;1.85;;;8.20;99.90;;;;;;5018690;28;20042;-62
2023/12/24 03:44:25;;;;;;;3.90;1.20;;;8.20;99.90;;;;;;5019298;28;20116;-62
2023/12/24 03:46:51;;;;;;;4.10;1.40;;;8.20;99.90;;;;;;5022954;28;20018;-62
2023/12/24 03:49:16;;;;;;;3.53;1.10;;;8.20;99.90;;;;;;5023959;28;20105;-62
2023/12/24 03:51:42;;;;;;;3.50;1.10;;;8.30;99.90;;;;;;5025049;28;20472;-62
2023/12/24 03:54:08;;;;;;;3.22;1.30;;;8.20;99.90;;;;;;5023190;28;20472;-62
2023/12/24 03:56:33;;;;;;;2.17;0.90;;;8.30;99.90;;;;;;5003844;28;20034;-62
2023/12/24 03:58:59;;;;;;;2.13;0.95;;;8.30;99.90;;;;;;5019089;28;20021;-62
2023/12/24 04:01:26;;;;;;;1.90;0.80;;;8.30;99.90;;;;;;5002817;28;20380;-62
2023/12/24 04:03:54;;;;;;;2.45;1.02;;;8.30;99.90;;;;;;5023564;28;20565;-62
2023/12/24 04:06:19;;;;;;;2.95;0.82;;;8.40;99.90;;;;;;5003819;28;20496;-62
2023/12/24 04:08:45;;;;;;;4.13;0.90;;;8.40;99.90;;;;;;5023667;28;20068;-62
2023/12/24 04:11:17;;;;;;;1.02;0.70;;;8.40;99.90;;;;;;5020910;28;20030;-62
2023/12/24 04:13:43;;;;;;;1.98;0.77;;;8.40;99.90;;;;;;5019930;28;20029;-62
2023/12/24 04:16:09;;;;;;;1.25;0.70;;;8.40;99.90;;;;;;5021030;28;20029;-62
2023/12/24 04:18:35;;;;;;;1.25;0.75;;;8.40;99.90;;;;;;4999643;28;20422;-62
2023/12/24 04:21:01;;;;;;;1.73;0.77;;;8.50;99.90;;;;;;5001537;28;20045;-62
2023/12/24 04:23:27;;;;;;;2.45;0.70;;;8.50;99.90;;;;;;5001427;28;20018;-62
2023/12/24 04:25:53;;;;;;;1.63;0.70;;;8.50;99.90;;;;;;5001338;28;20295;-63
2023/12/24 04:28:18;;;;;;;1.10;0.70;;;8.60;99.90;;;;;;4999519;28;20018;-63
2023/12/24 04:30:44;;;;;;;1.23;0.70;;;8.50;99.90;;;;;;4999957;28;20615;-62
2023/12/24 04:33:12;;;;;;;1.48;0.80;;;8.50;99.90;;;;;;4998999;28;20044;-62
2023/12/24 04:35:37;;;;;;;2.67;0.80;;;8.50;99.90;;;;;;5001091;28;20385;-62
2023/12/24 04:38:03;;;;;;;1.58;0.80;;;8.60;99.90;;;;;;5000409;28;20014;-62
2023/12/24 04:40:29;;;;;;;1.00;0.68;;;8.60;99.90;;;;;;4998018;28;20027;-62
2023/12/24 04:42:54;;;;;;;1.88;0.82;;;8.60;99.90;;;;;;4998914;28;20049;-63
2023/12/24 04:45:20;;;;;;;1.80;1.02;;;8.60;99.90;;;;;;4998926;28;20498;-63
2023/12/24 04:47:46;;;;;;;1.80;0.80;;;8.60;99.90;;;;;;4998134;28;20470;-63
2023/12/24 04:50:12;;;;;;;1.73;0.88;;;8.60;99.90;;;;;;4997722;28;20040;-62
2023/12/24 04:52:38;;;;;;;2.75;0.80;;;8.60;99.90;;;;;;4999429;28;20030;-63
2023/12/24 04:55:04;;;;;;;1.75;0.80;;;8.60;99.90;;;;;;4997752;28;20446;-63
2023/12/24 04:57:30;;;;;;;2.65;0.90;;;8.70;99.90;;;;;;4995902;28;20053;-62
2023/12/24 04:59:56;;;;;;;2.55;0.80;;;8.70;99.90;;;;;;4993132;28;20378;-62
2023/12/24 05:02:22;;;;;;;1.80;0.90;;;8.70;99.90;;;;;;4998432;28;20036;-63
2023/12/24 05:04:49;;;;;;;1.83;0.90;;;8.70;99.90;;;;;;4999257;28;20038;-62
2023/12/24 05:07:15;;;;;;;0.65;0.65;;;8.70;99.90;;;;;;4996159;28;20029;-63
2023/12/24 05:09:41;;;;;;;2.20;0.80;;;8.60;99.90;;;;;;4997520;28;20029;-62
2023/12/24 05:12:07;;;;;;;0.90;0.60;;;8.70;99.90;;;;;;4997893;28;20053;-63
2023/12/24 05:14:34;;;;;;;2.50;0.80;;;8.70;99.90;;;;;;4999410;28;20218;-63
2023/12/24 05:16:59;;;;;;;1.38;0.77;;;8.70;99.90;;;;;;5000225;28;20032;-63
2023/12/24 05:19:25;;;;;;;1.45;0.70;;;8.70;99.90;;;;;;5012271;28;20368;-63
2023/12/24 05:21:51;;;;;;;1.58;0.77;;;8.70;99.90;;;;;;5017093;28;20104;-63
2023/12/24 05:24:16;;;;;;;1.55;0.70;;;8.80;99.90;;;;;;5019887;28;20017;-63
2023/12/24 05:26:42;;;;;;;1.63;0.80;;;8.70;99.90;;;;;;5018689;28;20064;-63
2023/12/24 05:29:07;;;;;;;1.63;0.90;;;8.70;99.90;;;;;;5019436;28;20025;-63
2023/12/24 05:31:39;;;;;;;1.98;0.82;;;8.80;99.90;;;;;;5016821;28;20090;-63
2023/12/24 05:34:04;;;;;;;1.33;0.77;;;8.80;99.90;;;;;;5016883;28;20029;-63
2023/12/24 05:36:32;;;;;;;0.98;0.70;;;8.60;99.90;;;;;;5018875;28;20519;-63
2023/12/24 05:38:58;;;;;;;1.42;0.73;;;8.70;99.90;;;;;;5000609;28;20068;-63
2023/12/24 05:41:24;;;;;;;2.25;0.80;;;8.70;99.90;;;;;;5014969;28;20034;-63
2023/12/24 05:43:49;;;;;;;3.22;0.70;;;8.70;99.90;;;;;;5016020;28;20152;-63
2023/12/24 05:46:15;;;;;;;3.30;1.00;;;8.70;99.90;;;;;;5018994;28;20033;-63
2023/12/24 05:48:41;;;;;;;1.83;0.80;;;8.70;99.90;;;;;;5017271;28;20014;-63
2023/12/24 05:51:07;;;;;;;2.33;0.85;;;8.80;99.90;;;;;;5018572;28;20465;-63
2023/12/24 05:53:33;;;;;;;1.10;0.63;;;8.80;99.90;;;;;;5017860;28;20024;-62
2023/12/24 05:55:59;;;;;;;1.20;0.70;;;8.90;99.90;;;;;;4997928;28;20025;-62
2023/12/24 05:58:25;;;;;;;1.30;0.70;;;8.80;99.90;;;;;;5013949;28;20029;-62
2023/12/24 06:00:52;;;;;;;2.72;0.80;;;8.80;99.90;;;;;;4997842;28;20037;-62
2023/12/24 06:03:18;;;;;;;1.73;0.77;;;8.80;99.90;;;;;;5000740;28;20457;-62
2023/12/24 06:05:44;;;;;;;1.80;0.85;;;8.80;99.90;;;;;;4998219;28;20026;-62
2023/12/24 06:08:13;;;;;;;1.70;0.80;;;8.80;99.90;;;;;;5016436;28;20022;-63
2023/12/24 06:10:39;;;;;;;1.10;0.70;;;8.80;99.90;;;;;;4998840;28;20167;-62
2023/12/24 06:13:04;;;;;;;1.55;0.70;;;8.80;99.90;;;;;;4998842;28;20591;-62
2023/12/24 06:15:30;;;;;;;1.85;0.77;;;8.80;99.90;;;;;;5022639;28;20033;-62
2023/12/24 06:17:56;;;;;;;1.40;0.70;;;8.80;99.90;;;;;;5019505;28;20099;-62
2023/12/24 06:20:22;;;;;;;1.45;0.77;;;8.80;99.90;;;;;;5005180;28;20076;-62
2023/12/24 06:22:47;;;;;;;1.35;0.70;;;8.90;99.90;;;;;;5022633;28;20025;-62
2023/12/24 06:25:13;;;;;;;1.85;0.77;;;8.80;99.90;;;;;;5003518;28;20366;-63
2023/12/24 06:27:38;;;;;;;1.35;0.75;;;8.80;99.90;;;;;;5023032;28;20029;-62
2023/12/24 06:30:05;;;;;;;0.90;0.70;;;8.80;99.90;;;;;;5018811;28;20024;-63
2023/12/24 06:32:30;;;;;;;2.58;0.90;;;8.90;99.90;;;;;;5022776;28;20037;-63
2023/12/24 06:34:56;;;;;;;1.20;0.80;;;8.90;99.90;;;;;;5002669;28;20049;-62
2023/12/24 06:37:23;;;;;;;2.50;0.90;;;8.90;99.90;;;;;;5021657;28;20037;-63
2023/12/24 06:39:49;;;;;;;2.20;0.90;;;8.90;99.90;;;;;;5016157;28;20025;-63
2023/12/24 06:42:17;;;;;;;1.30;0.77;;;8.90;99.90;;;;;;5020087;28;20040;-62
2023/12/24 06:44:43;;;;;;;1.05;0.70;;;8.90;99.90;;;;;;5018896;28;20109;-62
2023/12/24 06:47:08;;;;;;;1.90;0.77;;;8.90;99.90;;;;;;5017481;28;20106;-63
2023/12/24 06:49:34;;;;;;;1.48;0.80;;;8.90;99.90;;;;;;5021803;28;20140;-62
2023/12/24 06:52:00;;;;;;;1.15;0.80;;;8.80;99.90;;;;;;5022570;28;20037;-62
2023/12/24 06:54:25;;;;;;;2.03;0.90;;;8.90;99.90;;;;;;5024357;28;20033;-63
2023/12/24 06:56:51;;;;;;;1.02;0.70;;;8.90;99.90;;;;;;5022876;28;20025;-62
2023/12/24 06:59:17;;;;;;;2.00;0.80;;;9.00;99.90;;;;;;5021615;28;20018;-63
2023/12/24 07:01:42;;;;;;;0.95;0.60;;;8.90;99.90;;;;;;5022073;28;20113;-62
2023/12/24 07:04:08;;;;;;;1.65;0.70;;;9.00;99.90;;;;;;5020884;28;20021;-63
2023/12/24 07:06:34;;;;;;;1.67;0.80;;;9.10;99.90;;;;;;5023121;28;20104;-63
2023/12/24 07:08:59;;;;;;;0.68;0.60;;;9.00;99.90;;;;;;5021213;28;20032;-63
2023/12/24 07:11:25;;;;;;;1.75;0.80;;;9.00;99.90;;;;;;5020898;28;20139;-63
2023/12/24 07:13:55;;;;;;;1.55;0.90;;;8.90;99.90;;;;;;5021694;28;20091;-62
2023/12/24 07:16:22;;;;;;;1.17;0.70;;;9.00;99.90;;;;;;5018947;28;20037;-62
2023/12/24 07:18:48;;;;;;;1.90;0.88;;;9.00;99.90;;;;;;5004850;28;20319;-62
2023/12/24 07:21:13;;;;;;;4.68;1.00;;;9.00;99.90;;;;;;4994967;28;20026;-62
2023/12/24 07:23:39;;;;;;;2.00;0.88;;;9.00;99.90;;;;;;4998563;28;20054;-63
2023/12/24 07:26:08;;;;;;;1.45;0.75;;;9.00;99.90;;;;;;5015766;28;20041;-62
2023/12/24 07:28:34;;;;;;;1.85;0.93;;;9.00;99.90;;;;;;5002165;28;20468;-62
2023/12/24 07:31:00;;;;;;;1.92;0.80;;;9.00;99.90;;;;;;5019439;28;20534;-63
2023/12/24 07:33:26;;;;;;;1.27;0.68;;;9.10;99.90;;;;;;5018797;28;20042;-63
2023/12/24 07:35:51;;;;;;;1.70;0.80;;;9.10;99.90;;;;;;5016901;28;20524;-63
2023/12/24 07:38:17;;;;;;;2.00;0.80;;;9.10;99.90;;;;;;5019022;28;20405;-63
2023/12/24 07:40:43;;;;;;;2.05;0.93;;;9.10;99.90;;;;;;5016438;28;20026;-63
2023/12/24 07:43:08;;;;;;;1.02;0.70;;;9.10;99.90;;;;;;5015563;28;20037;-63
2023/12/24 07:45:34;;;;;;;2.25;0.80;;;9.10;99.90;;;;;;5015301;28;20033;-63
2023/12/24 07:48:01;;;;;;;1.42;0.80;;;9.10;99.90;;;;;;5001348;28;20389;-63
2023/12/24 07:50:26;;;;;;;1.45;0.75;;;9.10;99.90;;;;;;4993850;28;20105;-63
2023/12/24 07:52:52;;;;;;;1.15;0.70;;;9.10;99.90;;;;;;5018304;28;20440;-63
2023/12/24 07:55:18;;;;;;;2.40;1.00;;;9.10;99.90;;;;;;5016494;28;20076;-63
2023/12/24 07:57:43;;;;;;;2.08;0.90;;;9.20;99.90;;;;;;5015178;28;20084;-63
2023/12/24 08:00:10;;;;;;;1.00;0.70;;;9.10;99.90;;;;;;5013847;28;20564;-63
2023/12/24 08:02:35;;;;;;;1.48;0.80;;;9.20;99.90;;;;;;5014435;28;20038;-63
2023/12/24 08:05:01;;;;;;;1.50;0.80;;;9.20;99.90;;;;;;5018339;28;20381;-63
2023/12/24 08:07:26;;;;;;;1.88;0.80;;;9.20;99.90;;;;;;5018530;28;20022;-63
2023/12/24 08:09:52;;;;;;;0.73;0.60;;;9.20;99.90;;;;;;5016400;28;20049;-62
2023/12/24 08:12:18;;;;;;;2.72;0.80;;;9.20;99.90;;;;;;5016150;28;20029;-62
2023/12/24 08:14:43;;;;;;;1.80;0.88;;;9.20;99.90;;;;;;5020711;28;20032;-62
2023/12/24 08:17:10;;;;;;;1.52;0.70;;;9.20;99.90;;;;;;5008536;28;20380;-62
2023/12/24 08:19:39;;;;;;;1.83;0.80;;;9.30;99.90;;;;;;4978801;28;20062;-62
2023/12/24 08:22:04;;;;;;;3.05;1.00;;;9.30;99.90;;;;;;4996982;28;20022;-62
2023/12/24 08:24:31;;;;;;;3.08;1.10;;;9.30;99.90;;;;;;4983226;28;20584;-63
2023/12/24 08:26:57;;;;;;;1.75;0.80;;;9.20;99.90;;;;;;4988305;28;20053;-63
2023/12/24 08:29:22;;;;;;;1.92;0.90;;;9.20;99.90;;;;;;4985761;28;20088;-62
2023/12/24 08:31:48;;;;;;;4.00;1.00;;;9.20;99.90;;;;;;4979254;28;20094;-62
2023/12/24 08:34:13;;;;;;;2.55;0.80;;;9.30;99.90;;;;;;4987191;28;20026;-62
2023/12/24 08:36:39;;;;;;;1.95;0.80;;;9.30;99.90;;;;;;4979159;28;20043;-62
2023/12/24 08:39:05;;;;;;;1.58;0.80;;;9.30;99.90;;;;;;4978515;28;20057;-62
2023/12/24 08:41:30;;;;;;;1.20;0.70;;;9.30;99.90;;;;;;4980045;28;20039;-62
2023/12/24 08:43:56;;;;;;;1.73;0.80;;;9.30;99.90;;;;;;4983955;28;20015;-62
2023/12/24 08:46:24;;;;;;;1.60;0.77;;;9.40;99.90;;;;;;4981308;28;20103;-63
2023/12/24 08:48:50;;;;;;;1.38;0.77;;;9.40;99.90;;;;;;4979693;28;20470;-62
2023/12/24 08:51:18;;;;;;;2.15;0.95;;;9.40;99.90;;;;;;4987256;28;20033;-62
2023/12/24 08:53:43;;;;;;;2.05;0.90;;;9.50;99.90;;;;;;4981434;28;20493;-62
2023/12/24 08:56:09;;;;;;;1.77;0.70;;;9.40;99.90;;;;;;4983876;28;20023;-62
2023/12/24 08:58:34;;;;;;;1.85;0.90;;;9.50;99.90;;;;;;4988413;28;20457;-62
2023/12/24 09:01:00;;;;;;;2.33;1.00;;;9.40;99.90;;;;;;4986074;28;20145;-62
2023/12/24 09:03:25;;;;;;;1.65;0.90;;;9.40;99.90;;;;;;4980369;28;20114;-62
2023/12/24 09:05:53;;;;;;;1.58;0.82;;;9.40;99.90;;;;;;4983669;28;20405;-62
2023/12/24 09:08:19;;;;;;;3.65;1.00;;;9.40;99.90;;;;;;4986901;28;20037;-62
2023/12/24 09:10:44;;;;;;;2.88;0.95;;;9.50;99.90;;;;;;4979890;28;20346;-62
2023/12/24 09:13:10;;;;;;;2.33;0.82;;;9.50;99.90;;;;;;4979648;28;20034;-62
2023/12/24 09:15:36;;;;;;;2.38;0.93;;;9.50;99.90;;;;;;4978741;28;20023;-62
2023/12/24 09:18:02;;;;;;;2.92;1.20;;;9.50;99.90;;;;;;4984116;28;20068;-62
2023/12/24 09:20:27;;;;;;;3.03;1.10;;;9.50;99.90;;;;;;4987610;28;20043;-62
2023/12/24 09:22:53;;;;;;;4.10;1.00;;;9.50;99.90;;;;;;4997765;28;20030;-62
2023/12/24 09:25:19;;;;;;;3.65;1.10;;;9.50;99.90;;;;;;4980464;28;20149;-62
2023/12/24 09:27:45;;;;;;;2.50;0.90;;;9.50;99.90;;;;;;5002318;28;20116;-62
2023/12/24 09:30:11;;;;;;;3.60;1.40;;;9.50;99.90;;;;;;4993850;28;20548;-63
2023/12/24 09:32:37;;;;;;;3.70;1.17;;;9.50;99.90;;;;;;5001181;28;20030;-62
2023/12/24 09:35:03;;;;;;;2.35;1.00;;;9.60;99.90;;;;;;4983155;28;20496;-62
2023/12/24 09:37:31;;;;;;;3.78;1.25;;;9.60;99.90;;;;;;4997809;28;20040;-62
2023/12/24 09:39:56;;;;;;;4.70;1.23;;;9.60;99.90;;;;;;4999260;28;20030;-62
2023/12/24 09:42:24;;;;;;;3.35;1.30;;;9.80;99.90;;;;;;5000352;28;20073;-62
2023/12/24 09:44:50;;;;;;;3.25;1.10;;;9.70;99.90;;;;;;4995622;28;20034;-62
2023/12/24 09:47:15;;;;;;;4.38;1.20;;;9.70;99.90;;;;;;4977779;28;20413;-62
2023/12/24 09:49:41;;;;;;;3.33;1.10;;;9.70;99.90;;;;;;4988531;28;20033;-62
2023/12/24 09:52:07;;;;;;;2.47;1.00;;;9.70;99.90;;;;;;4992059;28;20854;-62
2023/12/24 09:54:32;;;;;;;2.00;0.98;;;9.80;99.90;;;;;;4967436;28;20213;-62
2023/12/24 09:56:59;;;;;;;1.67;0.80;;;9.80;99.90;;;;;;4911797;28;20055;-62
2023/12/24 09:59:24;;;;;;;2.03;1.00;;;9.80;99.90;;;;;;4915480;29;20559;-63
2023/12/24 10:01:50;;;;;;;2.70;1.08;;;9.90;99.90;;;;;;4890432;29;20182;-62
2023/12/24 10:04:16;;;;;;;2.30;0.90;;;9.80;99.90;;;;;;4936696;29;20471;-62
2023/12/24 10:06:58;;;;;;;3.22;1.10;;;9.90;99.90;;;;;;5120272;23;20059;-60
2023/12/24 10:12:21;;;;;;;2.22;1.00;;;9.90;99.90;;;;;;5275951;23;20575;-61
2023/12/24 10:14:58;;;;;;;1.83;1.00;;;9.90;99.90;;;;;;4968886;28;20409;-61
2023/12/24 10:17:31;;;;;;;4.20;0.90;;;9.90;99.90;;;;;;4985116;28;20460;-61
2023/12/24 10:19:58;;;;;;;2.72;0.95;;;9.80;99.90;;;;;;4945364;28;20470;-62
2023/12/24 10:22:24;;;;;;;2.15;0.90;;;9.80;99.90;;;;;;4987179;28;20469;-61
2023/12/24 10:24:58;;;;;;;2.67;1.00;;;9.80;99.90;;;;;;4968809;28;20030;-61
2023/12/24 10:27:23;;;;;;;3.65;1.17;;;9.80;99.90;;;;;;4987997;28;20018;-60
2023/12/24 10:29:49;;;;;;;6.78;1.42;;;9.80;99.90;;;;;;4985925;28;20038;-61
2023/12/24 10:32:22;;;;;;;3.38;1.20;;;9.80;99.90;;;;;;4986740;28;20026;-61
2023/12/24 10:34:57;;;;;;;3.13;1.10;;;9.80;99.90;;;;;;4987567;28;20751;-61
2023/12/24 10:37:26;;;;;;;2.53;1.02;;;9.80;99.90;;;;;;4987394;28;20029;-62
2023/12/24 10:40:12;;;;;;;3.75;1.30;;;9.70;99.90;;;;;;4989486;28;20405;-61
2023/12/24 10:42:39;;;;;;;4.47;1.33;;;9.80;99.90;;;;;;4987909;28;20050;-62
2023/12/24 10:45:08;;;;;;;3.78;1.25;;;9.80;99.90;;;;;;4987679;28;20029;-62
2023/12/24 10:47:35;;;;;;;3.33;1.40;;;9.80;99.90;;;;;;4990110;28;20030;-62
2023/12/24 10:50:03;;;;;;;3.58;1.30;;;9.80;99.90;;;;;;4988528;28;20473;-62
2023/12/24 10:52:29;;;;;;;5.30;1.30;;;9.80;99.90;;;;;;4989638;28;20027;-61
2023/12/24 10:54:56;;;;;;;4.93;1.35;;;9.80;99.90;;;;;;4988315;28;20037;-61
2023/12/24 10:57:31;;;;;;;3.13;1.10;;;9.90;99.90;;;;;;4988038;28;20085;-61
2023/12/24 11:00:06;;;;;;;3.38;1.30;;;9.90;99.90;;;;;;4983370;28;20453;-61
2023/12/24 11:02:36;;;;;;;6.45;1.23;;;9.90;99.90;;;;;;4989558;28;20031;-62
2023/12/24 11:05:02;;;;;;;2.92;1.00;;;9.90;99.90;;;;;;4988650;28;20037;-62
2023/12/24 11:07:33;;;;;;;3.00;1.13;;;9.90;99.90;;;;;;4987645;28;20113;-61
2023/12/24 11:10:04;;;;;;;2.92;1.20;;;9.90;99.90;;;;;;4986622;28;20046;-62
2023/12/24 11:12:31;;;;;;;2.20;1.00;;;9.90;99.90;;;;;;4972585;28;20133;-61
2023/12/24 11:14:58;;;;;;;2.70;1.08;;;9.90;99.90;;;;;;4975504;28;20031;-61
2023/12/24 11:17:37;;;;;;;3.55;1.27;;;9.90;99.90;;;;;;4972331;28;20367;-61
2023/12/24 11:20:18;;;;;;;3.28;1.33;;;10.00;99.90;;;;;;4975025;28;20050;-61
2023/12/24 11:23:02;;;;;;;8.50;1.35;;;10.00;99.90;;;;;;4975178;28;20030;-62
2023/12/24 11:25:44;;;;;;;4.70;1.65;;;10.00;99.90;;;;;;4971548;28;20018;-62
2023/12/24 11:28:36;;;;;;;5.18;1.38;;;10.00;99.90;;;;;;4970005;28;20027;-61
2023/12/24 11:31:04;;;;;;;2.90;1.20;;;10.00;99.90;;;;;;4977190;28;20069;-61
2023/12/24 11:33:32;;;;;;;3.63;1.20;;;10.10;99.90;;;;;;4974355;28;20354;-62
2023/12/24 11:36:07;;;;;;;2.85;1.10;;;10.10;99.90;;;;;;4973759;28;20023;-61
2023/12/24 11:38:33;;;;;;;4.07;1.10;;;10.00;99.90;;;;;;4977790;28;20564;-62
2023/12/24 11:41:05;;;;;;;3.33;1.00;;;10.10;99.90;;;;;;4978312;28;20113;-62
2023/12/24 11:43:31;;;;;;;4.40;1.50;;;10.00;99.90;;;;;;4977472;28;20097;-62
2023/12/24 11:45:57;;;;;;;3.30;1.25;;;10.00;99.90;;;;;;4980485;28;20054;-61
2023/12/24 11:48:27;;;;;;;4.47;1.50;;;10.00;99.90;;;;;;4974426;28;20030;-62
2023/12/24 11:51:03;;;;;;;4.05;1.35;;;10.10;99.90;;;;;;4975909;28;20944;-62
2023/12/24 11:53:35;;;;;;;3.75;1.27;;;10.10;99.90;;;;;;4974861;28;20078;-62
2023/12/24 11:56:11;;;;;;;3.15;1.27;;;10.10;99.90;;;;;;4969148;28;20058;-62
2023/12/24 11:58:38;;;;;;;2.60;1.00;;;10.10;99.90;;;;;;4971760;28;21519;-62
2023/12/24 12:01:04;;;;;;;4.03;1.30;;;10.10;99.90;;;;;;4972527;28;20090;-62
2023/12/24 12:03:34;;;;;;;2.95;1.10;;;10.20;99.90;;;;;;4976426;28;20023;-62
2023/12/24 12:06:00;;;;;;;;;;;10.10;99.90;;;;;;4972381;28;20100;-62
2023/12/24 12:08:30;;;;;;;2.53;1.10;;;10.10;99.90;;;;;;4977936;28;19914;-62
2023/12/24 12:10:56;;;;;;;3.33;1.20;;;10.20;99.90;;;;;;4975498;28;20031;-62
2023/12/24 12:13:22;;;;;;;3.38;1.20;;;10.10;99.90;;;;;;4977336;28;20030;-62
2023/12/24 12:15:48;;;;;;;3.33;1.20;;;10.10;99.90;;;;;;4983462;28;20371;-62
2023/12/24 12:18:15;;;;;;;3.40;1.25;;;10.20;99.90;;;;;;4986616;28;20089;-62
2023/12/24 12:20:41;;;;;;;3.28;1.10;;;10.20;99.90;;;;;;4971563;28;20030;-62
2023/12/24 12:23:07;;;;;;;4.18;1.42;;;10.20;99.90;;;;;;4966836;28;20732;-62
2023/12/24 12:25:33;;;;;;;4.07;1.23;;;10.20;99.90;;;;;;4974291;28;20085;-62
2023/12/24 12:27:59;;;;;;;3.35;1.25;;;10.30;99.90;;;;;;4974312;28;20034;-62
2023/12/24 12:30:25;;;;;;;6.88;1.80;;;10.30;99.90;;;;;;4976373;28;20089;-62
2023/12/24 12:32:50;;;;;;;5.80;1.73;;;10.20;99.90;;;;;;4974945;28;20062;-62
2023/12/24 12:35:16;;;;;;;3.70;1.40;;;10.30;99.90;;;;;;4973672;28;20027;-63
2023/12/24 12:37:42;;;;;;;4.05;1.42;;;10.30;99.90;;;;;;4976530;28;20030;-62
2023/12/24 12:40:08;;;;;;;5.32;1.83;;;10.30;99.90;;;;;;4974794;28;20105;-62
2023/12/24 12:42:34;;;;;;;5.03;1.92;;;10.30;99.90;;;;;;4976476;28;20153;-62
2023/12/24 12:45:00;;;;;;;4.60;1.80;;;10.30;99.90;;;;;;4969933;28;20107;-62
2023/12/24 12:47:26;;;;;;;5.93;2.20;;;10.30;99.90;;;;;;4975765;28;20411;-62
2023/12/24 12:49:52;;;;;;;5.75;1.67;;;10.30;99.90;;;;;;4976409;28;20032;-62
2023/12/24 12:52:17;;;;;;;7.13;2.33;;;10.30;99.90;;;;;;4971349;28;20109;-62
2023/12/24 12:54:43;;;;;;;6.10;2.20;;;10.30;99.90;;;;;;4972760;28;20474;-62
2023/12/24 12:57:09;;;;;;;5.82;2.03;;;10.30;99.90;;;;;;4981349;28;20105;-62